createdAt,value
2018-09-25T00:04:14.210Z,85.30
2018-09-25T00:09:34.961Z,84.40
2018-09-25T00:14:56.248Z,83.50
2018-09-25T00:20:17.003Z,83.20
2018-09-25T00:25:37.872Z,82.90
2018-09-25T00:30:58.824Z,82.60
2018-09-25T00:36:19.804Z,82.50
2018-09-25T00:41:40.672Z,81.90
2018-09-25T00:47:01.707Z,82.20
2018-09-25T00:52:22.572Z,82.40
2018-09-25T00:57:43.577Z,83.90
2018-09-25T01:03:04.678Z,85.10
2018-09-25T01:08:25.387Z,85.60
2018-09-25T01:13:46.528Z,86.40
2018-09-25T01:19:07.405Z,86.40
2018-09-25T01:24:28.142Z,87.20
2018-09-25T01:29:48.903Z,87.00
2018-09-25T01:35:09.640Z,87.40
2018-09-25T01:40:30.419Z,87.80
2018-09-25T01:45:51.678Z,87.90
2018-09-25T01:51:12.639Z,88.50
2018-09-25T01:56:33.367Z,88.00
2018-09-25T02:01:54.132Z,88.60
2018-09-25T02:07:14.783Z,89.20
2018-09-25T02:12:35.865Z,89.30
2018-09-25T02:17:56.774Z,89.30
2018-09-25T02:23:17.759Z,89.90
2018-09-25T02:28:38.903Z,90.00
2018-09-25T02:33:59.652Z,90.30
2018-09-25T02:39:20.843Z,90.20
2018-09-25T02:44:41.743Z,90.20
2018-09-25T02:50:02.567Z,90.50
2018-09-25T02:55:24.076Z,90.60
2018-09-25T03:00:44.813Z,90.60
2018-09-25T03:06:06.049Z,90.80
2018-09-25T03:11:26.858Z,91.10
2018-09-25T03:16:47.815Z,91.10
2018-09-25T03:22:08.594Z,91.30
2018-09-25T03:27:29.476Z,91.50
2018-09-25T03:32:50.218Z,91.60
2018-09-25T03:38:11.024Z,91.80
2018-09-25T03:43:31.718Z,91.80
2018-09-25T03:48:52.537Z,92.00
2018-09-25T03:54:13.696Z,92.10
2018-09-25T03:59:34.340Z,92.20
2018-09-25T04:04:55.592Z,92.40
2018-09-25T04:10:16.280Z,92.50
2018-09-25T04:15:37.061Z,92.70
2018-09-25T04:21:00.653Z,92.80
2018-09-25T04:26:21.733Z,92.60
2018-09-25T04:31:42.488Z,92.80
2018-09-25T04:37:03.619Z,92.80
2018-09-25T04:42:24.844Z,92.80
2018-09-25T04:47:45.792Z,92.60
2018-09-25T04:53:06.875Z,92.60
2018-09-25T04:58:27.811Z,92.80
2018-09-25T05:03:48.616Z,92.80
2018-09-25T05:09:09.428Z,92.90
2018-09-25T05:14:30.667Z,93.00
2018-09-25T05:19:51.544Z,92.90
2018-09-25T05:25:12.832Z,92.90
2018-09-25T05:30:33.588Z,92.70
2018-09-25T05:35:54.484Z,92.60
2018-09-25T05:41:15.124Z,92.60
2018-09-25T05:46:36.450Z,92.70
2018-09-25T05:51:57.596Z,92.60
2018-09-25T05:57:18.761Z,92.00
2018-09-25T06:02:39.794Z,91.70
2018-09-25T06:08:01.110Z,91.50
2018-09-25T06:13:22.113Z,90.90
2018-09-25T06:18:42.947Z,88.50
2018-09-25T06:24:03.643Z,83.50
2018-09-25T06:29:24.592Z,78.90
2018-09-25T06:34:45.401Z,76.20
2018-09-25T06:40:06.111Z,72.80
2018-09-25T06:45:27.059Z,72.50
2018-09-25T06:50:47.954Z,69.90
2018-09-25T06:56:08.982Z,65.90
2018-09-25T07:01:29.910Z,67.50
2018-09-25T07:06:50.782Z,64.50
2018-09-25T07:12:12.021Z,60.70
2018-09-25T07:17:33.121Z,60.60
2018-09-25T07:22:54.213Z,59.10
2018-09-25T07:28:15.291Z,56.90
2018-09-25T07:33:36.430Z,55.30
2018-09-25T07:38:57.594Z,54.40
2018-09-25T07:44:18.606Z,54.40
2018-09-25T07:49:39.785Z,55.70
2018-09-25T07:55:00.653Z,53.30
2018-09-25T08:00:21.674Z,52.30
2018-09-25T08:05:42.736Z,53.30
2018-09-25T08:11:03.574Z,54.30
2018-09-25T08:16:25.333Z,55.50
2018-09-25T08:21:46.078Z,57.60
2018-09-25T08:27:07.056Z,59.70
2018-09-25T08:32:28.143Z,61.70
2018-09-25T08:37:48.992Z,64.30
2018-09-25T08:43:10.036Z,68.70
2018-09-25T08:48:30.770Z,72.70
2018-09-25T08:53:51.954Z,73.00
2018-09-25T08:59:12.742Z,72.60
2018-09-25T09:04:33.437Z,72.50
2018-09-25T09:09:54.482Z,73.60
2018-09-25T09:15:15.527Z,73.30
2018-09-25T09:20:36.436Z,73.90
2018-09-25T09:25:57.537Z,72.10
2018-09-25T09:31:20.057Z,69.20
2018-09-25T09:36:39.888Z,68.10
2018-09-25T09:42:01.241Z,66.40
2018-09-25T09:47:22.120Z,61.00
2018-09-25T09:52:43.029Z,56.30
2018-09-25T09:58:03.969Z,49.80
2018-09-25T10:03:24.946Z,40.90
2018-09-25T10:08:46.082Z,37.40
2018-09-25T10:14:07.096Z,35.60
2018-09-25T10:19:27.928Z,34.00
2018-09-25T10:24:48.939Z,37.70
2018-09-25T10:30:09.950Z,33.40
2018-09-25T10:35:31.012Z,33.30
2018-09-25T10:40:51.937Z,32.70
2018-09-25T10:46:12.937Z,32.50
2018-09-25T10:51:34.167Z,30.40
2018-09-25T10:56:55.187Z,31.00
2018-09-25T11:02:16.246Z,28.80
2018-09-25T11:07:37.093Z,29.70
2018-09-25T11:12:58.301Z,28.60
2018-09-25T11:18:19.312Z,28.50
2018-09-25T11:23:40.372Z,28.90
2018-09-25T11:29:01.144Z,28.20
2018-09-25T11:34:22.442Z,28.00
2018-09-25T11:39:43.229Z,27.20
2018-09-25T11:45:04.212Z,27.00
2018-09-25T11:50:24.917Z,28.60
2018-09-25T11:55:45.630Z,28.00
2018-09-25T12:01:06.551Z,30.00
2018-09-25T12:06:27.877Z,30.70
2018-09-25T12:11:48.845Z,30.60
2018-09-25T12:17:09.816Z,28.60
2018-09-25T12:22:30.829Z,30.00
2018-09-25T12:27:51.920Z,30.00
2018-09-25T12:33:13.068Z,29.20
2018-09-25T12:38:33.842Z,28.00
2018-09-25T12:43:54.855Z,27.70
2018-09-25T12:49:15.794Z,28.80
2018-09-25T12:54:36.699Z,29.50
2018-09-25T12:59:57.692Z,30.00
2018-09-25T13:05:18.609Z,30.30
2018-09-25T13:10:39.911Z,30.60
2018-09-25T13:16:00.664Z,31.60
2018-09-25T13:21:21.711Z,33.20
2018-09-25T13:26:42.780Z,33.40
2018-09-25T13:32:04.057Z,35.20
2018-09-25T13:37:24.938Z,35.90
2018-09-25T13:42:45.873Z,37.00
2018-09-25T13:48:06.637Z,38.60
2018-09-25T13:53:27.430Z,39.20
2018-09-25T13:58:48.140Z,39.40
2018-09-25T14:04:09.109Z,40.00
2018-09-25T14:09:30.104Z,39.00
2018-09-25T14:14:51.193Z,39.20
2018-09-25T14:20:12.194Z,40.00
2018-09-25T14:25:33.177Z,39.80
2018-09-25T14:30:53.967Z,40.20
2018-09-25T14:36:15.177Z,40.60
2018-09-25T14:41:36.354Z,40.40
2018-09-25T14:46:57.294Z,40.00
2018-09-25T14:52:27.300Z,40.10
2018-09-25T14:57:48.143Z,40.20
2018-09-25T15:03:08.964Z,40.20
2018-09-25T15:08:30.024Z,41.20
2018-09-25T15:13:51.036Z,41.20
2018-09-25T15:19:11.971Z,41.00
2018-09-25T15:24:33.294Z,41.70
2018-09-25T15:29:54.061Z,41.20
2018-09-25T15:35:15.521Z,41.20
2018-09-25T15:40:36.457Z,40.50
2018-09-25T15:45:57.812Z,42.60
2018-09-25T15:51:18.675Z,42.60
2018-09-25T15:56:39.883Z,43.30
2018-09-25T16:02:00.996Z,43.50
2018-09-25T16:07:24.957Z,44.50
2018-09-25T16:12:45.718Z,44.20
2018-09-25T16:18:06.454Z,44.30
2018-09-25T16:23:27.585Z,43.50
2018-09-25T16:28:48.910Z,43.70
2018-09-25T16:34:09.932Z,44.30
2018-09-25T16:39:31.142Z,45.20
2018-09-25T16:44:52.253Z,46.50
2018-09-25T16:50:13.349Z,47.50
2018-09-25T16:55:34.093Z,47.10
2018-09-25T17:00:54.968Z,47.80
2018-09-25T17:06:16.254Z,49.60
2018-09-25T17:11:37.455Z,49.50
2018-09-25T17:16:58.536Z,50.00
2018-09-25T17:22:19.440Z,51.30
2018-09-25T17:27:40.256Z,52.30
2018-09-25T17:33:01.305Z,53.00
2018-09-25T17:38:22.039Z,53.80
2018-09-25T17:43:42.905Z,54.30
2018-09-25T17:49:03.999Z,56.10
2018-09-25T17:54:24.968Z,60.00
2018-09-25T17:59:45.805Z,62.60
2018-09-25T18:05:06.989Z,64.60
2018-09-25T18:10:27.958Z,65.50
2018-09-25T18:15:48.999Z,65.40
2018-09-25T18:21:10.118Z,66.10
2018-09-25T18:26:30.861Z,66.10
2018-09-25T18:31:51.699Z,66.10
2018-09-25T18:37:12.518Z,66.30
2018-09-25T18:42:33.490Z,66.60
2018-09-25T18:47:54.134Z,67.00
2018-09-25T18:53:15.373Z,67.40
2018-09-25T18:58:36.449Z,68.00
2018-09-25T19:03:57.228Z,68.80
2018-09-25T19:09:17.897Z,70.00
2018-09-25T19:14:38.588Z,70.10
2018-09-25T19:19:59.419Z,70.30
2018-09-25T19:25:20.526Z,70.10
2018-09-25T19:30:41.818Z,70.00
2018-09-25T19:36:02.822Z,69.90
2018-09-25T19:41:23.672Z,69.80
2018-09-25T19:46:44.850Z,70.00
2018-09-25T19:52:06.030Z,71.00
2018-09-25T19:57:26.985Z,71.40
2018-09-25T20:02:48.077Z,73.50
2018-09-25T20:08:08.907Z,73.00
2018-09-25T20:13:30.106Z,73.20
2018-09-25T20:18:50.963Z,73.10
2018-09-25T20:24:11.841Z,73.00
2018-09-25T20:29:32.885Z,73.10
2018-09-25T20:34:53.574Z,73.70
2018-09-25T20:40:14.408Z,73.90
2018-09-25T20:45:35.277Z,74.20
2018-09-25T20:50:56.048Z,74.80
2018-09-25T20:56:16.846Z,74.70
2018-09-25T21:01:37.642Z,75.10
2018-09-25T21:06:58.327Z,76.00
2018-09-25T21:12:19.555Z,75.80
2018-09-25T21:17:40.554Z,76.40
2018-09-25T21:23:01.462Z,76.80
2018-09-25T21:28:22.228Z,77.40
2018-09-25T21:33:43.379Z,77.80
2018-09-25T21:39:04.484Z,78.10
2018-09-25T21:44:25.583Z,78.30
2018-09-25T21:49:46.487Z,79.30
2018-09-25T21:55:07.587Z,79.90
2018-09-25T22:00:28.911Z,80.40
2018-09-25T22:05:49.779Z,81.10
2018-09-25T22:11:10.897Z,81.50
2018-09-25T22:16:31.650Z,81.90
2018-09-25T22:21:52.389Z,82.20
2018-09-25T22:27:13.182Z,82.70
2018-09-25T22:32:34.027Z,82.70
2018-09-25T22:37:54.848Z,82.60
2018-09-25T22:43:15.620Z,82.90
2018-09-25T22:48:36.956Z,83.00
2018-09-25T22:53:57.713Z,83.10
2018-09-25T22:59:18.424Z,83.10
2018-09-25T23:04:39.216Z,83.20
2018-09-25T23:10:00.252Z,82.90
2018-09-25T23:15:21.175Z,82.20
2018-09-25T23:20:42.000Z,82.40
2018-09-25T23:26:02.968Z,82.60
2018-09-25T23:31:24.376Z,82.30
2018-09-25T23:36:45.606Z,83.30
2018-09-25T23:42:06.333Z,82.70
2018-09-25T23:47:27.404Z,82.70
2018-09-25T23:53:01.562Z,83.30
2018-09-25T23:58:17.126Z,83.50
